Details From GCGM - La Gomera
To GCHI - Hierro
Flight Number -
Tags generated
Created
Modified
Stats Distance 38 nm / 70 km
Max Altitude 0 ft / 0 m
Waypoints 3
Social Downloads 2
Likes 0
Share VATSIM

Download

Looking for another format? Having issues loading an existing format? Contact us
Advertisement - Login to hide

Notes

None

Route

GCGM GOMER GCHI

ID Type Via Altitude Latitude Longitude Leg Dist Tot Dist Heading (true) Name
O GCGM APT - 0 ft / 0 m 28.02963˚ -17.21460˚ - 0 nm - La Gomera
GOMER FIX - 0 ft / 0 m 28.00000˚ -17.33333˚ 6 nm 6 nm 254° / 254° -
O GCHI APT - 0 ft / 0 m 27.81485˚ -17.88705˚ 31 nm 37 nm 249° / 249° Hierro

Altitude Profile

Advertisement - Login to hide

GCGM

Details ICAO GCGM (GMZ)
Name La Gomera
Region Canary Islands
Timezone Atlantic/Canary (UTC+0.0)
Stats Elevation 715 ft / 218 m (AMSL)
Location 28.029627° -17.214603°
Runways 1
Magnetic Variation 5.359° W

METAR

GCGM 160900Z 08003KT 000V130 9999 FEW020 19/14 Q1024 RMK R09/VRB01KT ARP/VRB01KT

Decode

TAF

TAF GCGM 160800Z 1609/1709 23008KT 9999 FEW025 TX22/1614Z TN17/1706Z PROB40 TEMPO 1612/1709 4500 RA

Decode

Departure Runways

ID Width Length Bearing (true) Bearing (mag) Surface Threshold Offset Overrun Length
09 98 ft / 30 m 4,914 ft / 1,498 m 81.17° 86.53° Asphalt 0 ft / 0 m 0 ft / 0 m
27 98 ft / 30 m 4,914 ft / 1,498 m 261.18° 266.54° Asphalt 0 ft / 0 m 0 ft / 0 m

GCHI

Details ICAO GCHI (VDE)
Name Hierro
Region Canary Islands
Timezone Atlantic/Canary (UTC+0.0)
Stats Elevation 337 ft / 103 m (AMSL)
Location 27.814848° -17.887052°
Runways 1
Magnetic Variation 5.628° W

METAR

GCHI 160900Z 01012KT 340V040 9999 FEW018 20/16 Q1024

Decode

TAF

TAF GCHI 160800Z 1609/1709 03016KT 9999 FEW030 TX21/1614Z TN19/1706Z TEMPO 1609/1610 33006KT PROB40 TEMPO 1612/1709 4500 RA

Decode

Destination Runways

ID Width Length Bearing (true) Bearing (mag) Surface Threshold Offset Overrun Length
16 98 ft / 30 m 4,110 ft / 1,253 m 152.71° 158.34° Asphalt 0 ft / 0 m 112 ft / 34 m
34 98 ft / 30 m 4,110 ft / 1,253 m 332.71° 338.34° Asphalt 0 ft / 0 m 105 ft / 32 m

Popular Alternatives